createdAt,value
2022-08-29T00:00:51.487Z,15.71
2022-08-29T00:03:22.119Z,15.54
2022-08-29T00:05:51.101Z,15.68
2022-08-29T00:08:21.158Z,15.71
2022-08-29T00:10:49.575Z,15.61
2022-08-29T00:13:17.997Z,15.61
2022-08-29T00:15:49.367Z,15.60
2022-08-29T00:18:19.551Z,15.54
2022-08-29T00:20:48.980Z,15.46
2022-08-29T00:23:17.961Z,15.51
2022-08-29T00:25:50.039Z,15.58
2022-08-29T00:28:20.825Z,15.44
2022-08-29T00:30:50.084Z,15.69
2022-08-29T00:33:19.976Z,15.41
2022-08-29T00:35:53.281Z,15.46
2022-08-29T00:38:21.669Z,15.39
2022-08-29T00:40:59.955Z,15.31
2022-08-29T00:43:30.747Z,15.53
2022-08-29T00:46:09.119Z,15.25
2022-08-29T00:48:39.240Z,15.46
2022-08-29T00:51:13.709Z,15.62
2022-08-29T00:53:49.247Z,15.28
2022-08-29T00:56:19.291Z,15.48
2022-08-29T00:58:52.332Z,15.37
2022-08-29T01:01:23.082Z,15.61
2022-08-29T01:03:52.499Z,15.72
2022-08-29T01:06:22.228Z,15.47
2022-08-29T01:08:57.605Z,15.44
2022-08-29T01:11:47.835Z,15.54
2022-08-29T01:14:17.480Z,15.19
2022-08-29T01:16:47.787Z,15.20
2022-08-29T01:19:26.253Z,14.97
2022-08-29T01:22:03.860Z,15.04
2022-08-29T01:24:40.500Z,15.40
2022-08-29T01:27:12.113Z,15.55
2022-08-29T01:29:41.336Z,15.42
2022-08-29T01:32:09.706Z,15.18
2022-08-29T01:34:38.107Z,15.01
2022-08-29T01:37:08.705Z,14.87
2022-08-29T01:39:43.896Z,15.08
2022-08-29T01:42:15.135Z,15.07
2022-08-29T01:44:49.736Z,15.15
2022-08-29T01:47:19.443Z,15.20
2022-08-29T01:49:48.326Z,14.95
2022-08-29T01:52:16.944Z,14.95
2022-08-29T01:54:47.317Z,15.30
2022-08-29T01:57:17.263Z,15.04
2022-08-29T01:59:46.234Z,14.85
2022-08-29T02:02:18.287Z,14.77
2022-08-29T02:04:47.325Z,14.91
2022-08-29T02:07:17.436Z,14.81
2022-08-29T02:09:48.330Z,14.67
2022-08-29T02:12:17.535Z,14.73
2022-08-29T02:14:46.358Z,14.70
2022-08-29T02:17:14.950Z,14.53
2022-08-29T02:19:44.060Z,14.53
2022-08-29T02:22:12.602Z,14.55
2022-08-29T02:24:41.295Z,14.58
2022-08-29T02:27:12.479Z,14.69
2022-08-29T02:29:41.028Z,14.65
2022-08-29T02:32:15.172Z,14.55
2022-08-29T02:34:47.647Z,14.23
2022-08-29T02:37:17.807Z,14.44
2022-08-29T02:39:46.184Z,14.15
2022-08-29T02:42:15.887Z,14.22
2022-08-29T02:44:44.202Z,14.39
2022-08-29T02:47:14.591Z,14.16
2022-08-29T02:49:43.702Z,14.20
2022-08-29T02:52:12.619Z,14.37
2022-08-29T02:54:41.515Z,14.14
2022-08-29T02:57:09.908Z,13.95
2022-08-29T02:59:39.679Z,13.95
2022-08-29T03:02:08.151Z,14.05
2022-08-29T03:04:36.516Z,14.18
2022-08-29T03:07:05.450Z,14.03
2022-08-29T03:09:33.822Z,14.31
2022-08-29T03:12:04.891Z,14.21
2022-08-29T03:14:33.261Z,14.43
2022-08-29T03:17:02.963Z,13.94
2022-08-29T03:19:31.379Z,13.94
2022-08-29T03:22:06.284Z,13.87
2022-08-29T03:24:35.612Z,13.89
2022-08-29T03:27:04.186Z,13.94
2022-08-29T03:29:32.710Z,13.76
2022-08-29T03:32:01.324Z,13.70
2022-08-29T03:34:31.058Z,13.79
2022-08-29T03:36:59.695Z,13.84
2022-08-29T03:39:29.396Z,14.01
2022-08-29T03:41:58.359Z,13.78
2022-08-29T03:44:27.156Z,14.07
2022-08-29T03:46:56.987Z,14.79
2022-08-29T03:49:25.787Z,14.27
2022-08-29T03:51:56.044Z,13.96
2022-08-29T03:54:24.858Z,13.88
2022-08-29T03:56:53.287Z,13.75
2022-08-29T03:59:21.660Z,13.68
2022-08-29T04:01:50.048Z,13.71
2022-08-29T04:04:34.572Z,13.70
2022-08-29T04:07:06.336Z,13.56
2022-08-29T04:09:34.775Z,13.55
2022-08-29T04:12:03.620Z,13.63
2022-08-29T04:14:32.401Z,13.54
2022-08-29T04:17:01.169Z,13.52
2022-08-29T04:19:29.524Z,13.54
2022-08-29T04:21:58.200Z,13.64
2022-08-29T04:24:27.899Z,13.63
2022-08-29T04:26:56.587Z,13.65
2022-08-29T04:29:25.882Z,13.70
2022-08-29T04:31:54.273Z,13.62
2022-08-29T04:34:25.331Z,13.64
2022-08-29T04:36:53.635Z,13.73
2022-08-29T04:39:23.647Z,13.64
2022-08-29T04:41:53.348Z,13.46
2022-08-29T04:44:21.732Z,13.55
2022-08-29T04:46:50.101Z,13.39
2022-08-29T04:49:18.725Z,13.53
2022-08-29T04:51:47.145Z,13.53
2022-08-29T04:54:15.838Z,13.69
2022-08-29T04:56:47.370Z,13.72
2022-08-29T04:59:17.783Z,13.48
2022-08-29T05:01:46.913Z,13.63
2022-08-29T05:04:15.259Z,13.64
2022-08-29T05:06:43.753Z,13.74
2022-08-29T05:09:12.107Z,13.60
2022-08-29T05:11:41.416Z,13.71
2022-08-29T05:14:10.075Z,13.76
2022-08-29T05:16:39.855Z,13.94
2022-08-29T05:19:09.671Z,14.19
2022-08-29T05:21:40.486Z,14.31
2022-08-29T05:24:12.820Z,14.18
2022-08-29T05:26:44.089Z,14.34
2022-08-29T05:29:14.433Z,14.38
2022-08-29T05:31:45.803Z,14.17
2022-08-29T05:34:32.325Z,14.29
2022-08-29T05:37:05.503Z,14.50
2022-08-29T05:39:34.826Z,14.48
2022-08-29T05:42:03.769Z,14.69
2022-08-29T05:44:35.305Z,14.99
2022-08-29T05:47:06.662Z,14.66
2022-08-29T05:49:37.107Z,14.57
2022-08-29T05:52:07.223Z,14.66
2022-08-29T05:54:41.208Z,15.00
2022-08-29T05:57:14.212Z,15.02
2022-08-29T05:59:45.360Z,15.21
2022-08-29T06:02:15.194Z,15.08
2022-08-29T06:04:44.095Z,15.11
2022-08-29T06:07:12.657Z,15.47
2022-08-29T06:09:42.670Z,20.03
2022-08-29T06:14:40.441Z,23.61
2022-08-29T06:17:10.472Z,23.20
2022-08-29T06:19:40.939Z,23.38
2022-08-29T06:22:10.710Z,22.91
2022-08-29T06:24:40.324Z,23.91
2022-08-29T06:27:14.106Z,19.37
2022-08-29T06:29:43.952Z,21.16
2022-08-29T06:32:12.880Z,22.94
2022-08-29T06:34:43.004Z,20.80
2022-08-29T06:37:11.376Z,18.17
2022-08-29T06:39:39.916Z,17.71
2022-08-29T06:42:09.728Z,17.66
2022-08-29T06:44:42.477Z,17.31
2022-08-29T06:47:13.101Z,17.99
2022-08-29T06:49:42.898Z,17.86
2022-08-29T06:52:11.287Z,17.57
2022-08-29T06:54:39.818Z,17.23
2022-08-29T06:57:08.356Z,17.91
2022-08-29T06:59:36.748Z,17.28
2022-08-29T07:02:05.558Z,17.51
2022-08-29T07:04:33.919Z,17.21
2022-08-29T07:07:07.334Z,17.18
2022-08-29T07:09:35.683Z,16.98
2022-08-29T07:12:05.956Z,17.48
2022-08-29T07:14:34.302Z,17.24
2022-08-29T07:17:02.664Z,17.21
2022-08-29T07:19:30.991Z,17.52
2022-08-29T07:22:00.227Z,17.65
2022-08-29T07:24:30.004Z,17.66
2022-08-29T07:26:58.413Z,17.63
2022-08-29T07:29:26.765Z,18.17
2022-08-29T07:31:55.144Z,17.61
2022-08-29T07:34:23.469Z,18.10
2022-08-29T07:36:51.809Z,18.36
2022-08-29T07:39:24.008Z,18.25
2022-08-29T07:41:53.682Z,18.25
2022-08-29T07:44:22.018Z,18.30
2022-08-29T07:46:50.335Z,18.08
2022-08-29T07:49:18.759Z,17.81
2022-08-29T07:51:47.889Z,18.02
2022-08-29T07:54:18.730Z,18.10
2022-08-29T07:56:48.728Z,18.44
2022-08-29T07:59:20.059Z,18.40
2022-08-29T08:01:51.558Z,18.21
2022-08-29T08:04:20.488Z,18.60
2022-08-29T08:06:52.626Z,18.48
2022-08-29T08:09:21.004Z,18.57
2022-08-29T08:11:49.470Z,18.98
2022-08-29T08:14:19.276Z,19.37
2022-08-29T08:16:47.762Z,19.35
2022-08-29T08:19:17.003Z,19.70
2022-08-29T08:21:49.592Z,19.77
2022-08-29T08:24:19.787Z,19.57
2022-08-29T08:26:48.947Z,19.19
2022-08-29T08:29:19.361Z,19.52
2022-08-29T08:31:49.849Z,19.47
2022-08-29T08:34:19.263Z,19.75
2022-08-29T08:36:47.693Z,20.30
2022-08-29T08:39:16.532Z,19.98
2022-08-29T08:41:57.155Z,20.46
2022-08-29T08:44:54.112Z,20.34
2022-08-29T08:47:28.508Z,20.44
2022-08-29T08:50:01.398Z,20.80
2022-08-29T08:52:38.761Z,20.99
2022-08-29T08:55:19.587Z,20.09
2022-08-29T08:57:53.820Z,20.65
2022-08-29T09:00:23.625Z,21.03
2022-08-29T09:03:05.082Z,21.28
2022-08-29T09:05:49.425Z,21.29
2022-08-29T09:08:29.828Z,21.76
2022-08-29T09:11:03.110Z,20.80
2022-08-29T09:13:40.653Z,20.86
2022-08-29T09:16:18.858Z,21.86
2022-08-29T09:18:52.842Z,21.97
2022-08-29T09:21:40.598Z,22.02
2022-08-29T09:24:18.960Z,21.30
2022-08-29T09:26:47.469Z,22.49
2022-08-29T09:29:20.984Z,22.50
2022-08-29T09:32:08.387Z,22.00
2022-08-29T09:37:30.240Z,22.39
2022-08-29T09:40:02.974Z,22.08
2022-08-29T09:42:35.379Z,22.21
2022-08-29T09:45:05.360Z,22.45
2022-08-29T09:47:35.625Z,22.91
2022-08-29T09:50:12.070Z,22.91
2022-08-29T09:52:51.085Z,22.76
2022-08-29T09:55:28.477Z,23.24
2022-08-29T09:58:01.666Z,22.66
2022-08-29T10:00:34.487Z,23.28
2022-08-29T10:03:06.324Z,22.54
2022-08-29T10:05:41.700Z,23.29
2022-08-29T10:08:26.568Z,22.77
2022-08-29T10:11:03.773Z,23.44
2022-08-29T10:13:38.991Z,23.51
2022-08-29T10:16:17.866Z,23.19
2022-08-29T10:18:51.922Z,23.12
2022-08-29T10:21:32.213Z,23.45
2022-08-29T10:24:36.096Z,23.78
2022-08-29T10:27:15.760Z,23.25
2022-08-29T10:29:56.293Z,23.49
2022-08-29T10:32:37.161Z,23.75
2022-08-29T10:35:15.978Z,24.17
2022-08-29T10:37:53.640Z,24.01
2022-08-29T10:40:28.323Z,23.49
2022-08-29T10:43:16.834Z,23.47
2022-08-29T10:45:57.639Z,23.71
2022-08-29T10:48:30.956Z,23.89
2022-08-29T10:51:17.977Z,23.94
2022-08-29T10:53:48.650Z,24.18
2022-08-29T10:56:23.103Z,24.23
2022-08-29T10:59:04.170Z,24.06
2022-08-29T11:01:38.322Z,24.49
2022-08-29T11:04:17.563Z,24.35
2022-08-29T11:06:54.304Z,24.30
2022-08-29T11:09:25.405Z,23.85
2022-08-29T11:12:00.522Z,24.78
2022-08-29T11:14:31.078Z,25.19
2022-08-29T11:16:59.679Z,24.77
2022-08-29T11:19:33.764Z,24.28
2022-08-29T11:22:05.997Z,25.02
2022-08-29T11:24:37.373Z,25.02
2022-08-29T11:27:09.109Z,25.29
2022-08-29T11:29:40.412Z,24.83
2022-08-29T11:32:10.705Z,25.05
2022-08-29T11:34:46.924Z,24.62
2022-08-29T11:37:26.967Z,24.74
2022-08-29T11:39:58.588Z,24.99
2022-08-29T11:45:24.811Z,25.11
2022-08-29T11:47:59.354Z,24.46
2022-08-29T11:50:32.570Z,25.03
2022-08-29T11:53:07.999Z,24.96
2022-08-29T11:55:38.378Z,25.99
2022-08-29T11:58:11.314Z,24.96
2022-08-29T12:00:42.512Z,25.49
2022-08-29T12:03:29.809Z,24.92
2022-08-29T12:06:00.473Z,25.47
2022-08-29T12:08:37.219Z,24.73
2022-08-29T12:11:06.823Z,25.12
2022-08-29T12:14:07.911Z,24.86
2022-08-29T12:16:53.730Z,25.24
2022-08-29T12:19:40.756Z,25.05
2022-08-29T12:22:22.455Z,25.44
2022-08-29T12:24:57.880Z,25.13
2022-08-29T12:27:47.332Z,26.03
2022-08-29T12:30:15.444Z,26.07
2022-08-29T12:32:52.910Z,26.18
2022-08-29T12:35:28.045Z,26.28
2022-08-29T12:38:03.402Z,25.99
2022-08-29T12:40:41.935Z,25.93
2022-08-29T12:43:18.820Z,25.75
2022-08-29T12:45:48.099Z,26.10
2022-08-29T12:48:20.632Z,26.34
2022-08-29T12:50:50.628Z,26.37
2022-08-29T12:53:20.113Z,25.68
2022-08-29T12:55:51.197Z,25.86
2022-08-29T12:58:35.936Z,25.18
2022-08-29T13:01:05.094Z,25.94
2022-08-29T13:03:33.313Z,26.21
2022-08-29T13:06:05.909Z,26.21
2022-08-29T13:08:37.091Z,26.34
2022-08-29T13:11:07.735Z,26.07
2022-08-29T13:13:36.705Z,26.67
2022-08-29T13:16:05.748Z,26.49
2022-08-29T13:18:53.686Z,25.90
2022-08-29T13:21:25.545Z,26.47
2022-08-29T13:24:01.733Z,25.93
2022-08-29T13:26:34.097Z,25.86
2022-08-29T13:29:14.421Z,25.93
2022-08-29T13:31:42.556Z,26.14
2022-08-29T13:34:15.662Z,25.74
2022-08-29T13:36:46.332Z,26.41
2022-08-29T13:39:32.434Z,26.24
2022-08-29T13:42:19.074Z,26.65
2022-08-29T13:44:53.913Z,26.86
2022-08-29T13:47:23.578Z,27.38
2022-08-29T13:49:52.063Z,27.43
2022-08-29T13:52:20.627Z,26.74
2022-08-29T13:54:48.714Z,26.61
2022-08-29T13:57:20.626Z,26.88
2022-08-29T13:59:48.855Z,26.38
2022-08-29T14:02:17.126Z,26.42
2022-08-29T14:04:48.083Z,26.41
2022-08-29T14:07:19.023Z,26.41
2022-08-29T14:09:47.722Z,26.59
2022-08-29T14:12:16.246Z,26.57
2022-08-29T14:14:46.737Z,26.79
2022-08-29T14:17:18.702Z,26.38
2022-08-29T14:19:47.099Z,26.37
2022-08-29T14:22:15.194Z,26.41
2022-08-29T14:24:51.266Z,26.47
2022-08-29T14:27:19.937Z,26.86
2022-08-29T14:29:51.114Z,27.28
2022-08-29T14:32:19.239Z,26.67
2022-08-29T14:34:50.948Z,26.85
2022-08-29T14:37:19.881Z,26.65
2022-08-29T14:39:49.966Z,27.12
2022-08-29T14:42:18.847Z,26.71
2022-08-29T14:44:46.913Z,26.61
2022-08-29T14:47:16.710Z,26.61
2022-08-29T14:49:44.753Z,26.56
2022-08-29T14:52:14.924Z,27.59
2022-08-29T14:54:43.546Z,27.01
2022-08-29T14:57:12.362Z,26.63
2022-08-29T14:59:40.630Z,26.89
2022-08-29T15:02:09.830Z,27.04
2022-08-29T15:04:39.403Z,26.94
2022-08-29T15:07:08.146Z,27.56
2022-08-29T15:09:36.211Z,26.70
2022-08-29T15:12:04.662Z,26.85
2022-08-29T15:14:34.273Z,26.71
2022-08-29T15:17:02.293Z,26.66
2022-08-29T15:20:31.879Z,26.60
2022-08-29T15:22:20.566Z,26.39
2022-08-29T15:24:50.045Z,26.92
2022-08-29T15:27:18.138Z,27.07
2022-08-29T15:29:46.279Z,26.88
2022-08-29T15:32:14.854Z,26.34
2022-08-29T15:34:43.554Z,26.52
2022-08-29T15:37:15.322Z,26.62
2022-08-29T15:39:45.054Z,26.52
2022-08-29T15:42:13.261Z,26.59
2022-08-29T15:44:47.788Z,26.32
2022-08-29T15:47:19.488Z,26.42
2022-08-29T15:49:53.753Z,26.58
2022-08-29T15:52:21.815Z,26.46
2022-08-29T15:54:51.304Z,26.74
2022-08-29T15:57:19.416Z,26.68
2022-08-29T15:59:58.578Z,26.63
2022-08-29T16:02:27.187Z,26.68
2022-08-29T16:04:57.150Z,26.68
2022-08-29T16:07:28.884Z,26.96
2022-08-29T16:10:00.170Z,26.59
2022-08-29T16:12:30.953Z,26.82
2022-08-29T16:15:00.816Z,26.61
2022-08-29T16:17:31.465Z,26.82
2022-08-29T16:20:00.876Z,26.46
2022-08-29T16:22:29.934Z,26.34
2022-08-29T16:24:59.803Z,26.68
2022-08-29T16:27:28.155Z,26.58
2022-08-29T16:29:57.258Z,26.65
2022-08-29T16:32:27.845Z,26.41
2022-08-29T16:34:58.531Z,26.35
2022-08-29T16:37:29.486Z,26.27
2022-08-29T16:39:59.730Z,26.39
2022-08-29T16:42:30.551Z,26.16
2022-08-29T16:44:59.621Z,26.08
2022-08-29T16:47:28.408Z,26.05
2022-08-29T16:49:56.555Z,26.14
2022-08-29T16:52:24.607Z,26.05
2022-08-29T16:54:53.717Z,25.87
2022-08-29T16:57:23.417Z,26.07
2022-08-29T16:59:51.536Z,25.81
2022-08-29T17:02:19.657Z,25.85
2022-08-29T17:04:48.863Z,25.73
2022-08-29T17:07:17.307Z,25.78
2022-08-29T17:09:44.256Z,25.75
2022-08-29T17:12:11.404Z,25.62
2022-08-29T17:14:40.368Z,25.67
2022-08-29T17:17:08.575Z,25.55
2022-08-29T17:19:37.466Z,25.45
2022-08-29T17:22:05.537Z,25.39
2022-08-29T17:24:33.628Z,25.26
2022-08-29T17:27:01.897Z,25.15
2022-08-29T17:29:32.620Z,25.14
2022-08-29T17:32:02.402Z,25.02
2022-08-29T17:34:31.196Z,24.93
2022-08-29T17:37:01.421Z,24.82
2022-08-29T17:39:29.518Z,24.81
2022-08-29T17:41:59.185Z,24.70
2022-08-29T17:44:27.654Z,24.62
2022-08-29T17:46:55.821Z,24.52
2022-08-29T17:49:25.671Z,24.42
2022-08-29T17:51:56.195Z,24.30
2022-08-29T17:54:25.540Z,24.25
2022-08-29T17:56:55.802Z,24.21
2022-08-29T17:59:27.162Z,24.07
2022-08-29T18:01:55.794Z,24.01
2022-08-29T18:04:28.560Z,23.86
2022-08-29T18:06:57.483Z,23.71
2022-08-29T18:09:26.105Z,23.48
2022-08-29T18:11:54.830Z,23.29
2022-08-29T18:14:23.810Z,23.17
2022-08-29T18:16:52.412Z,23.21
2022-08-29T18:19:21.991Z,23.20
2022-08-29T18:21:52.660Z,23.08
2022-08-29T18:24:20.987Z,23.01
2022-08-29T18:26:49.549Z,22.95
2022-08-29T18:29:18.432Z,22.93
2022-08-29T18:31:47.083Z,22.95
2022-08-29T18:34:15.782Z,22.87
2022-08-29T18:36:44.818Z,22.78
2022-08-29T18:39:14.862Z,22.76
2022-08-29T18:41:43.481Z,22.61
2022-08-29T18:44:11.920Z,22.58
2022-08-29T18:46:41.411Z,22.58
2022-08-29T18:49:16.002Z,22.53
2022-08-29T18:51:44.643Z,22.43
2022-08-29T18:54:18.813Z,22.41
2022-08-29T18:56:47.915Z,22.38
2022-08-29T18:59:16.626Z,22.39
2022-08-29T19:01:44.785Z,22.32
2022-08-29T19:04:13.000Z,22.29
2022-08-29T19:06:41.176Z,22.23
2022-08-29T19:09:09.426Z,22.29
2022-08-29T19:11:39.000Z,22.20
2022-08-29T19:14:07.146Z,22.31
2022-08-29T19:16:36.940Z,22.30
2022-08-29T19:19:05.317Z,22.25
2022-08-29T19:21:40.040Z,22.22
2022-08-29T19:24:08.297Z,22.17
2022-08-29T19:26:38.494Z,22.06
2022-08-29T19:29:12.560Z,22.10
2022-08-29T19:31:40.891Z,22.06
2022-08-29T19:34:09.066Z,22.01
2022-08-29T19:36:39.112Z,21.97
2022-08-29T19:39:07.145Z,21.86
2022-08-29T19:41:35.923Z,21.69
2022-08-29T19:44:04.254Z,21.41
2022-08-29T19:46:33.724Z,21.39
2022-08-29T19:51:36.215Z,20.99
2022-08-29T19:54:05.920Z,21.12
2022-08-29T19:56:34.274Z,21.29
2022-08-29T19:59:02.748Z,21.36
2022-08-29T20:01:30.888Z,21.45
2022-08-29T20:04:00.373Z,21.59
2022-08-29T20:06:30.565Z,21.54
2022-08-29T20:08:58.716Z,21.40
2022-08-29T20:11:27.817Z,21.24
2022-08-29T20:13:57.577Z,20.98
2022-08-29T20:16:27.280Z,20.68
2022-08-29T20:18:55.412Z,20.77
2022-08-29T20:21:25.599Z,20.96
2022-08-29T20:23:57.746Z,21.06
2022-08-29T20:26:27.914Z,20.94
2022-08-29T20:28:56.201Z,20.79
2022-08-29T20:31:24.349Z,20.79
2022-08-29T20:33:52.487Z,20.37
2022-08-29T20:36:38.987Z,20.04
2022-08-29T20:39:10.544Z,20.14
2022-08-29T20:41:38.622Z,20.09
2022-08-29T20:44:09.759Z,20.16
2022-08-29T20:46:40.279Z,19.76
2022-08-29T20:49:08.816Z,19.89
2022-08-29T20:51:39.577Z,19.67
2022-08-29T20:54:08.959Z,19.69
2022-08-29T20:56:37.067Z,19.66
2022-08-29T20:59:05.406Z,19.85
2022-08-29T21:01:34.573Z,19.47
2022-08-29T21:04:21.438Z,19.46
2022-08-29T21:06:49.638Z,19.69
2022-08-29T21:09:18.976Z,19.90
2022-08-29T21:11:47.028Z,19.79
2022-08-29T21:14:15.098Z,19.73
2022-08-29T21:16:43.136Z,19.62
2022-08-29T21:19:12.677Z,19.87
2022-08-29T21:21:41.464Z,19.75
2022-08-29T21:24:10.996Z,20.12
2022-08-29T21:26:40.781Z,20.09
2022-08-29T21:29:08.862Z,20.14
2022-08-29T21:31:37.377Z,20.11
2022-08-29T21:34:07.259Z,20.03
2022-08-29T21:36:36.092Z,20.02
2022-08-29T21:39:05.306Z,19.99
2022-08-29T21:41:33.855Z,19.94
2022-08-29T21:44:03.912Z,19.91
2022-08-29T21:46:33.264Z,19.90
2022-08-29T21:49:06.739Z,19.70
2022-08-29T21:51:35.502Z,19.80
2022-08-29T21:54:04.110Z,19.64
2022-08-29T21:56:32.966Z,19.59
2022-08-29T21:59:01.999Z,19.55
2022-08-29T22:02:37.366Z,19.38
2022-08-29T22:05:05.879Z,19.36
2022-08-29T22:07:34.302Z,19.29
2022-08-29T22:10:02.363Z,19.42
2022-08-29T22:12:31.251Z,19.44
2022-08-29T22:15:16.022Z,19.29
2022-08-29T22:17:47.732Z,19.21
2022-08-29T22:20:15.869Z,19.25
2022-08-29T22:22:43.951Z,18.69
2022-08-29T22:25:12.125Z,18.69
2022-08-29T22:27:40.554Z,18.73
2022-08-29T22:30:09.493Z,18.49
2022-08-29T22:32:37.713Z,18.64
2022-08-29T22:35:11.057Z,18.51
2022-08-29T22:37:39.433Z,18.54
2022-08-29T22:40:09.532Z,18.11
2022-08-29T22:42:38.189Z,18.13
2022-08-29T22:45:08.558Z,17.95
2022-08-29T22:47:36.935Z,17.91
2022-08-29T22:50:05.804Z,17.82
2022-08-29T22:52:35.208Z,17.62
2022-08-29T22:55:05.222Z,17.59
2022-08-29T22:57:33.734Z,17.65
2022-08-29T23:00:03.931Z,17.49
2022-08-29T23:02:32.727Z,17.57
2022-08-29T23:05:00.826Z,17.52
2022-08-29T23:07:28.874Z,17.60
2022-08-29T23:09:58.518Z,17.71
2022-08-29T23:12:26.620Z,17.73
2022-08-29T23:14:54.614Z,17.66
2022-08-29T23:17:24.942Z,17.66
2022-08-29T23:19:53.004Z,17.58
2022-08-29T23:22:21.888Z,17.57
2022-08-29T23:24:58.443Z,17.64
2022-08-29T23:27:29.034Z,17.47
2022-08-29T23:29:57.145Z,17.42
2022-08-29T23:32:27.345Z,17.34
2022-08-29T23:34:55.603Z,17.22
2022-08-29T23:37:23.909Z,17.29
2022-08-29T23:39:52.015Z,17.18
2022-08-29T23:42:20.096Z,17.11
2022-08-29T23:44:49.554Z,17.11
2022-08-29T23:47:18.047Z,17.13
2022-08-29T23:49:46.253Z,17.08
2022-08-29T23:52:14.639Z,16.87
2022-08-29T23:54:42.980Z,16.90
2022-08-29T23:57:11.052Z,17.31
2022-08-29T23:59:56.809Z,17.06
